createdAt,value
2023-03-31T00:00:35.883Z,5.40
2023-03-31T00:03:11.101Z,5.52
2023-03-31T00:05:41.958Z,5.68
2023-03-31T00:08:14.903Z,5.76
2023-03-31T00:10:49.325Z,5.69
2023-03-31T00:13:20.079Z,5.71
2023-03-31T00:15:51.586Z,5.86
2023-03-31T00:18:26.691Z,5.95
2023-03-31T00:20:59.441Z,5.92
2023-03-31T00:23:31.100Z,6.12
2023-03-31T00:26:01.683Z,6.34
2023-03-31T00:28:32.317Z,6.42
2023-03-31T00:31:06.246Z,6.45
2023-03-31T00:33:38.447Z,6.43
2023-03-31T00:36:10.738Z,6.26
2023-03-31T00:38:42.046Z,6.36
2023-03-31T00:41:12.810Z,6.41
2023-03-31T00:43:43.665Z,6.40
2023-03-31T00:46:19.106Z,6.45
2023-03-31T00:48:58.482Z,6.25
2023-03-31T00:51:32.304Z,6.40
2023-03-31T00:54:06.162Z,6.32
2023-03-31T00:56:40.678Z,6.29
2023-03-31T00:59:14.755Z,6.19
2023-03-31T01:01:48.752Z,6.23
2023-03-31T01:04:24.824Z,6.34
2023-03-31T01:07:05.998Z,6.19
2023-03-31T01:09:39.884Z,6.72
2023-03-31T01:12:13.562Z,6.70
2023-03-31T01:14:44.642Z,6.65
2023-03-31T01:17:19.966Z,6.75
2023-03-31T01:20:12.229Z,6.86
2023-03-31T01:23:18.113Z,7.04
2023-03-31T01:26:33.145Z,7.27
2023-03-31T01:29:12.763Z,7.14
2023-03-31T01:32:18.089Z,7.33
2023-03-31T01:35:39.123Z,7.48
2023-03-31T01:38:44.746Z,7.42
2023-03-31T01:41:38.435Z,7.42
2023-03-31T01:44:20.361Z,7.35
2023-03-31T01:46:56.732Z,7.37
2023-03-31T01:49:34.427Z,7.31
2023-03-31T01:52:11.044Z,7.33
2023-03-31T01:54:47.338Z,7.49
2023-03-31T01:57:26.122Z,7.61
2023-03-31T02:00:01.849Z,7.61
2023-03-31T02:02:39.718Z,7.44
2023-03-31T02:05:16.875Z,7.74
2023-03-31T02:07:52.670Z,7.82
2023-03-31T02:10:25.130Z,7.89
2023-03-31T02:12:59.224Z,7.89
2023-03-31T02:15:35.898Z,7.85
2023-03-31T02:18:12.246Z,7.92
2023-03-31T02:20:44.840Z,7.43
2023-03-31T02:23:17.785Z,7.80
2023-03-31T02:25:52.347Z,7.85
2023-03-31T02:28:26.398Z,7.32
2023-03-31T02:31:08.694Z,7.76
2023-03-31T02:33:39.417Z,7.67
2023-03-31T02:36:10.753Z,7.62
2023-03-31T02:38:45.702Z,6.58
2023-03-31T02:41:16.618Z,6.61
2023-03-31T02:43:48.931Z,6.18
2023-03-31T02:46:19.483Z,5.97
2023-03-31T02:48:53.548Z,5.04
2023-03-31T02:51:57.697Z,5.58
2023-03-31T02:55:00.884Z,5.59
2023-03-31T02:58:00.201Z,5.68
2023-03-31T03:00:42.454Z,5.72
2023-03-31T03:03:29.649Z,5.71
2023-03-31T03:06:10.165Z,5.80
2023-03-31T03:08:56.277Z,5.81
2023-03-31T03:11:34.915Z,5.66
2023-03-31T03:14:12.073Z,5.45
2023-03-31T03:16:48.075Z,5.27
2023-03-31T03:19:23.521Z,5.23
2023-03-31T03:21:54.045Z,5.23
2023-03-31T03:24:25.187Z,4.87
2023-03-31T03:26:56.116Z,5.10
2023-03-31T03:29:27.976Z,4.84
2023-03-31T03:32:00.185Z,4.70
2023-03-31T03:34:30.632Z,4.45
2023-03-31T03:37:01.137Z,4.37
2023-03-31T03:39:31.616Z,4.31
2023-03-31T03:42:02.145Z,4.37
2023-03-31T03:44:32.660Z,4.37
2023-03-31T03:47:04.759Z,4.26
2023-03-31T03:49:35.322Z,4.06
2023-03-31T03:52:06.009Z,3.79
2023-03-31T03:54:36.724Z,3.68
2023-03-31T03:57:08.234Z,3.68
2023-03-31T03:59:38.772Z,3.67
2023-03-31T04:02:11.173Z,3.57
2023-03-31T04:04:41.800Z,3.38
2023-03-31T04:07:12.377Z,3.24
2023-03-31T04:09:42.975Z,3.08
2023-03-31T04:12:13.484Z,2.94
2023-03-31T04:14:44.135Z,2.80
2023-03-31T04:17:16.643Z,2.75
2023-03-31T04:19:52.053Z,2.69
2023-03-31T04:22:22.638Z,2.72
2023-03-31T04:24:53.645Z,2.50
2023-03-31T04:27:28.288Z,2.38
2023-03-31T04:29:58.766Z,2.32
2023-03-31T04:32:33.852Z,2.21
2023-03-31T04:35:05.849Z,2.22
2023-03-31T04:37:39.684Z,2.06
2023-03-31T04:40:12.044Z,1.97
2023-03-31T04:42:42.598Z,1.92
2023-03-31T04:45:14.184Z,1.83
2023-03-31T04:47:46.426Z,1.71
2023-03-31T04:50:17.260Z,1.55
2023-03-31T04:52:47.939Z,1.49
2023-03-31T04:55:18.619Z,1.49
2023-03-31T04:57:49.148Z,1.51
2023-03-31T05:00:20.596Z,1.44
2023-03-31T05:02:53.107Z,1.28
2023-03-31T05:05:23.929Z,1.25
2023-03-31T05:07:55.074Z,1.19
2023-03-31T05:10:25.642Z,1.07
2023-03-31T05:12:56.148Z,1.31
2023-03-31T05:15:26.960Z,1.27
2023-03-31T05:18:01.246Z,1.28
2023-03-31T05:20:31.858Z,1.17
2023-03-31T05:23:02.924Z,1.31
2023-03-31T05:25:33.574Z,1.43
2023-03-31T05:28:05.002Z,1.49
2023-03-31T05:30:35.476Z,1.37
2023-03-31T05:33:07.652Z,1.58
2023-03-31T05:35:38.450Z,1.48
2023-03-31T05:38:08.958Z,1.77
2023-03-31T05:40:39.478Z,1.68
2023-03-31T05:43:10.092Z,1.58
2023-03-31T05:45:40.632Z,1.46
2023-03-31T05:48:13.164Z,1.35
2023-03-31T05:50:43.910Z,1.19
2023-03-31T05:53:14.445Z,1.18
2023-03-31T05:55:44.924Z,1.17
2023-03-31T05:58:15.613Z,1.10
2023-03-31T06:00:46.640Z,1.06
2023-03-31T06:03:18.891Z,0.93
2023-03-31T06:05:54.997Z,0.92
2023-03-31T06:08:25.837Z,0.89
2023-03-31T06:10:56.501Z,0.78
2023-03-31T06:13:27.040Z,0.76
2023-03-31T06:15:58.796Z,0.47
2023-03-31T06:18:31.832Z,0.62
2023-03-31T06:21:02.659Z,0.68
2023-03-31T06:23:33.293Z,0.70
2023-03-31T06:26:05.800Z,0.65
2023-03-31T06:28:36.651Z,0.72
2023-03-31T06:31:08.688Z,0.70
2023-03-31T06:33:42.059Z,0.79
2023-03-31T06:36:13.675Z,0.53
2023-03-31T06:38:44.524Z,0.69
2023-03-31T06:41:17.587Z,0.60
2023-03-31T06:43:48.247Z,0.49
2023-03-31T06:46:18.864Z,0.48
2023-03-31T06:48:52.014Z,0.46
2023-03-31T06:51:22.898Z,0.46
2023-03-31T06:53:53.540Z,0.46
2023-03-31T06:56:24.130Z,0.49
2023-03-31T06:58:54.535Z,0.34
2023-03-31T07:01:25.246Z,0.48
2023-03-31T07:03:57.507Z,0.50
2023-03-31T07:06:28.092Z,0.43
2023-03-31T07:09:05.335Z,0.29
2023-03-31T07:11:35.896Z,0.31
2023-03-31T07:14:07.137Z,0.30
2023-03-31T07:16:38.111Z,0.38
2023-03-31T07:19:11.890Z,0.35
2023-03-31T07:21:42.371Z,0.35
2023-03-31T07:24:15.997Z,0.26
2023-03-31T07:26:46.663Z,0.21
2023-03-31T07:29:17.236Z,0.06
2023-03-31T07:31:50.387Z,0.11
2023-03-31T07:34:22.571Z,0.08
2023-03-31T07:36:54.525Z,0.05
2023-03-31T07:39:25.172Z,-0.02
2023-03-31T07:41:55.689Z,0.01
2023-03-31T07:44:26.428Z,-0.08
2023-03-31T07:46:57.010Z,-0.12
2023-03-31T07:49:29.193Z,-0.14
2023-03-31T07:51:59.867Z,-0.10
2023-03-31T07:54:30.824Z,-0.18
2023-03-31T07:57:05.196Z,-0.24
2023-03-31T07:59:35.743Z,-0.76
2023-03-31T08:02:06.449Z,-0.32
2023-03-31T08:04:39.066Z,-0.74
2023-03-31T08:07:10.407Z,-0.43
2023-03-31T08:09:41.446Z,-0.35
2023-03-31T08:12:12.068Z,-0.37
2023-03-31T08:14:42.460Z,-0.40
2023-03-31T08:17:16.062Z,-0.39
2023-03-31T08:19:48.326Z,-0.39
2023-03-31T08:22:21.029Z,-0.46
2023-03-31T08:24:51.636Z,-0.44
2023-03-31T08:27:27.483Z,-0.50
2023-03-31T08:30:05.473Z,-0.52
2023-03-31T08:32:38.956Z,-0.55
2023-03-31T08:35:12.054Z,-0.50
2023-03-31T08:37:44.957Z,-0.56
2023-03-31T08:40:23.015Z,-0.52
2023-03-31T08:42:55.742Z,-0.57
2023-03-31T08:45:32.928Z,-1.02
2023-03-31T08:48:08.776Z,-0.68
2023-03-31T08:50:50.253Z,-0.55
2023-03-31T08:53:26.662Z,-0.58
2023-03-31T08:56:02.333Z,-0.59
2023-03-31T08:58:42.289Z,-0.60
2023-03-31T09:01:25.407Z,-0.62
2023-03-31T09:04:19.066Z,-0.60
2023-03-31T09:06:58.411Z,-0.97
2023-03-31T09:09:39.549Z,-0.62
2023-03-31T09:12:21.526Z,-0.62
2023-03-31T09:15:03.296Z,-0.62
2023-03-31T09:17:37.202Z,-1.20
2023-03-31T09:20:14.908Z,-0.60
2023-03-31T09:22:56.006Z,-0.53
2023-03-31T09:25:30.041Z,-0.48
2023-03-31T09:30:54.271Z,-0.46
2023-03-31T09:33:32.964Z,-0.44
2023-03-31T09:36:04.777Z,-0.41
2023-03-31T09:38:37.318Z,-0.37
2023-03-31T09:41:08.300Z,-0.39
2023-03-31T09:43:44.840Z,-0.43
2023-03-31T09:46:22.981Z,-0.41
2023-03-31T09:49:02.067Z,-0.43
2023-03-31T09:51:45.284Z,-0.33
2023-03-31T09:54:30.389Z,-0.30
2023-03-31T09:57:06.043Z,-0.26
2023-03-31T09:59:43.282Z,-0.22
2023-03-31T10:02:42.738Z,-0.20
2023-03-31T10:05:32.979Z,-0.23
2023-03-31T10:08:28.745Z,-0.24
2023-03-31T10:11:12.208Z,-0.31
2023-03-31T10:13:50.174Z,-0.29
2023-03-31T10:16:34.295Z,-0.23
2023-03-31T10:19:26.291Z,-0.26
2023-03-31T10:22:00.992Z,-0.27
2023-03-31T10:24:40.432Z,-0.50
2023-03-31T10:27:23.675Z,-0.26
2023-03-31T10:30:00.061Z,-0.24
2023-03-31T10:32:32.695Z,-0.19
2023-03-31T10:35:08.930Z,-0.69
2023-03-31T10:37:43.127Z,-0.15
2023-03-31T10:40:23.415Z,-0.07
2023-03-31T10:43:04.531Z,-0.12
2023-03-31T10:45:40.702Z,-0.09
2023-03-31T10:48:27.185Z,-0.47
2023-03-31T10:51:01.378Z,-0.05
2023-03-31T10:53:31.957Z,-0.04
2023-03-31T10:56:19.088Z,-0.07
2023-03-31T10:59:11.020Z,-0.07
2023-03-31T11:01:53.562Z,-0.12
2023-03-31T11:04:56.916Z,0.02
2023-03-31T11:07:49.826Z,0.05
2023-03-31T11:10:39.902Z,-0.01
2023-03-31T11:13:13.235Z,-0.01
2023-03-31T11:15:53.519Z,-0.09
2023-03-31T11:18:44.136Z,-0.06
2023-03-31T11:21:27.234Z,-0.05
2023-03-31T11:24:10.642Z,-0.02
2023-03-31T11:26:51.151Z,-0.01
2023-03-31T11:29:34.763Z,-0.03
2023-03-31T11:32:31.210Z,-0.01
2023-03-31T11:35:15.256Z,-0.38
2023-03-31T11:38:02.620Z,0.03
2023-03-31T11:40:43.143Z,-0.04
2023-03-31T11:43:20.018Z,0.01
2023-03-31T11:45:56.632Z,0.04
2023-03-31T11:48:38.987Z,0.03
2023-03-31T11:51:17.488Z,-0.06
2023-03-31T11:53:52.045Z,0.03
2023-03-31T11:56:24.246Z,0.03
2023-03-31T11:58:57.278Z,0.02
2023-03-31T12:01:37.077Z,-0.08
2023-03-31T12:04:26.318Z,0.04
2023-03-31T12:07:04.690Z,0.08
2023-03-31T12:09:41.249Z,0.03
2023-03-31T12:12:19.287Z,0.10
2023-03-31T12:14:57.245Z,0.08
2023-03-31T12:17:30.502Z,-0.01
2023-03-31T12:20:07.830Z,-0.02
2023-03-31T12:22:42.456Z,0.08
2023-03-31T12:25:15.803Z,0.09
2023-03-31T12:27:50.368Z,0.13
2023-03-31T12:30:32.277Z,0.11
2023-03-31T12:33:10.507Z,-0.10
2023-03-31T12:35:58.856Z,0.14
2023-03-31T12:38:39.722Z,0.07
2023-03-31T12:41:17.284Z,0.14
2023-03-31T12:44:11.537Z,0.16
2023-03-31T12:47:01.204Z,0.14
2023-03-31T12:50:01.867Z,0.14
2023-03-31T12:52:45.670Z,0.12
2023-03-31T12:55:47.082Z,0.11
2023-03-31T12:58:42.079Z,0.07
2023-03-31T13:01:18.556Z,0.06
2023-03-31T13:03:58.093Z,-0.22
2023-03-31T13:06:54.693Z,0.01
2023-03-31T13:09:47.901Z,-0.16
2023-03-31T13:12:21.166Z,-0.02
2023-03-31T13:14:56.096Z,-0.03
2023-03-31T13:17:36.506Z,-0.05
2023-03-31T13:20:31.152Z,-0.07
2023-03-31T13:23:07.338Z,-0.25
2023-03-31T13:25:57.815Z,-0.48
2023-03-31T13:28:45.586Z,-0.53
2023-03-31T13:31:18.246Z,-0.14
2023-03-31T13:33:58.520Z,-0.12
2023-03-31T13:37:00.134Z,-0.12
2023-03-31T13:40:10.480Z,-0.11
2023-03-31T13:43:28.930Z,-0.14
2023-03-31T13:46:24.341Z,-0.17
2023-03-31T13:49:04.410Z,-0.20
2023-03-31T13:51:49.672Z,-0.20
2023-03-31T13:54:55.400Z,-0.24
2023-03-31T13:58:29.898Z,-0.24
2023-03-31T14:01:37.504Z,-0.64
2023-03-31T14:04:23.904Z,-0.34
2023-03-31T14:07:00.375Z,-0.34
2023-03-31T14:09:36.245Z,-0.56
2023-03-31T14:12:24.958Z,-0.38
2023-03-31T14:14:59.166Z,-0.40
2023-03-31T14:17:43.861Z,-0.69
2023-03-31T14:20:46.720Z,-0.65
2023-03-31T14:23:34.262Z,-0.64
2023-03-31T14:26:43.332Z,-0.51
2023-03-31T14:29:22.750Z,-0.60
2023-03-31T14:32:10.196Z,-0.53
2023-03-31T14:35:05.410Z,-0.82
2023-03-31T14:37:38.973Z,-0.59
2023-03-31T14:40:21.823Z,-0.66
2023-03-31T14:42:53.828Z,-0.68
2023-03-31T14:45:27.906Z,-0.73
2023-03-31T14:48:02.583Z,-0.78
2023-03-31T14:50:45.089Z,-0.82
2023-03-31T14:53:33.622Z,-1.02
2023-03-31T14:56:25.017Z,-0.85
2023-03-31T14:59:16.294Z,-0.88
2023-03-31T15:01:52.967Z,-1.56
2023-03-31T15:04:39.293Z,-0.91
2023-03-31T15:08:04.251Z,-0.91
2023-03-31T15:14:20.867Z,-0.99
2023-03-31T15:17:17.113Z,-0.99
2023-03-31T15:19:50.300Z,-1.09
2023-03-31T15:22:32.461Z,-0.97
2023-03-31T15:25:04.997Z,-0.99
2023-03-31T15:28:43.474Z,-1.02
2023-03-31T15:31:42.783Z,-1.01
2023-03-31T15:34:31.299Z,-1.01
2023-03-31T15:37:20.291Z,-1.05
2023-03-31T15:39:52.105Z,-1.07
2023-03-31T15:43:01.492Z,-1.09
2023-03-31T15:45:59.041Z,-1.26
2023-03-31T15:48:49.020Z,-1.45
2023-03-31T15:51:37.579Z,-1.18
2023-03-31T15:55:05.106Z,-1.16
2023-03-31T15:58:49.375Z,-1.59
2023-03-31T16:02:15.456Z,-1.28
2023-03-31T16:04:55.067Z,-1.48
2023-03-31T16:08:02.176Z,-1.24
2023-03-31T16:10:39.509Z,-1.27
2023-03-31T16:16:15.665Z,-1.24
2023-03-31T16:19:03.264Z,-1.40
2023-03-31T16:21:51.820Z,-1.28
2023-03-31T16:24:34.126Z,-1.35
2023-03-31T16:27:12.885Z,-1.33
2023-03-31T16:29:44.822Z,-1.85
2023-03-31T16:32:20.553Z,-1.50
2023-03-31T16:35:01.473Z,-1.34
2023-03-31T16:37:44.591Z,-1.38
2023-03-31T16:40:18.261Z,-1.33
2023-03-31T16:42:50.570Z,-1.32
2023-03-31T16:45:27.065Z,-1.29
2023-03-31T16:48:16.080Z,-1.28
2023-03-31T16:50:56.290Z,-1.24
2023-03-31T16:53:34.935Z,-1.25
2023-03-31T16:56:08.383Z,-1.40
2023-03-31T16:58:40.082Z,-1.27
2023-03-31T17:01:15.767Z,-1.32
2023-03-31T17:03:46.964Z,-1.31
2023-03-31T17:06:21.869Z,-1.35
2023-03-31T17:09:02.397Z,-2.27
2023-03-31T17:11:35.286Z,-1.38
2023-03-31T17:14:12.549Z,-1.39
2023-03-31T17:16:48.714Z,-1.38
2023-03-31T17:19:26.201Z,-1.42
2023-03-31T17:22:06.193Z,-1.46
2023-03-31T17:24:41.418Z,-1.42
2023-03-31T17:27:14.862Z,-1.53
2023-03-31T17:29:48.149Z,-1.43
2023-03-31T17:32:18.776Z,-1.43
2023-03-31T17:34:50.352Z,-1.46
2023-03-31T17:37:30.961Z,-1.40
2023-03-31T17:40:01.435Z,-1.41
2023-03-31T17:42:35.591Z,-1.63
2023-03-31T17:45:24.401Z,-1.83
2023-03-31T17:47:57.814Z,-1.38
2023-03-31T17:50:37.573Z,-1.49
2023-03-31T17:53:23.166Z,-1.41
2023-03-31T17:56:12.818Z,-1.42
2023-03-31T17:58:49.616Z,-1.34
2023-03-31T18:02:26.292Z,-1.57
2023-03-31T18:12:03.699Z,-1.33
2023-03-31T18:19:20.100Z,-1.32
2023-03-31T18:21:58.825Z,-1.42
2023-03-31T18:25:39.175Z,-1.32
2023-03-31T18:29:16.663Z,-1.42
2023-03-31T18:32:19.300Z,-1.39
2023-03-31T18:34:58.524Z,-1.49
2023-03-31T18:41:15.236Z,-1.45
2023-03-31T18:44:51.336Z,-1.43
2023-03-31T18:47:47.342Z,-1.43
2023-03-31T18:50:20.786Z,-1.44
2023-03-31T18:53:19.883Z,-1.50
2023-03-31T18:57:01.807Z,-1.50
2023-03-31T19:00:14.168Z,-1.48
2023-03-31T19:02:46.810Z,-1.46
2023-03-31T19:05:17.580Z,-1.49
2023-03-31T19:07:48.267Z,-1.53
2023-03-31T19:10:24.899Z,-1.48
2023-03-31T19:12:56.569Z,-1.48
2023-03-31T19:15:30.100Z,-1.47
2023-03-31T19:18:06.792Z,-1.45
2023-03-31T19:20:40.330Z,-1.45
2023-03-31T19:23:11.140Z,-1.46
2023-03-31T19:25:41.897Z,-1.49
2023-03-31T19:28:17.269Z,-1.49
2023-03-31T19:30:50.196Z,-1.50
2023-03-31T19:33:23.090Z,-1.51
2023-03-31T19:35:54.454Z,-1.51
2023-03-31T19:38:32.774Z,-1.50
2023-03-31T19:41:04.958Z,-1.58
2023-03-31T19:43:35.863Z,-1.54
2023-03-31T19:46:12.107Z,-1.52
2023-03-31T19:48:48.971Z,-1.53
2023-03-31T19:51:19.909Z,-1.51
2023-03-31T19:53:51.212Z,-1.49
2023-03-31T19:56:22.329Z,-1.47
2023-03-31T19:58:53.003Z,-1.49
2023-03-31T20:01:25.541Z,-1.53
2023-03-31T20:03:57.796Z,-1.49
2023-03-31T20:06:32.614Z,-1.62
2023-03-31T20:09:04.265Z,-1.49
2023-03-31T20:11:34.846Z,-1.50
2023-03-31T20:14:07.085Z,-1.51
2023-03-31T20:16:37.635Z,-1.50
2023-03-31T20:19:09.950Z,-1.54
2023-03-31T20:21:41.736Z,-1.60
2023-03-31T20:24:17.924Z,-1.54
2023-03-31T20:26:48.913Z,-1.76
2023-03-31T20:29:19.792Z,-1.57
2023-03-31T20:31:51.085Z,-1.57
2023-03-31T20:34:23.585Z,-1.50
2023-03-31T20:36:54.088Z,-1.48
2023-03-31T20:39:24.636Z,-1.47
2023-03-31T20:41:56.037Z,-1.48
2023-03-31T20:44:26.506Z,-1.46
2023-03-31T20:46:59.808Z,-1.47
2023-03-31T20:49:31.998Z,-1.52
2023-03-31T20:52:02.417Z,-1.42
2023-03-31T20:54:32.889Z,-1.39
2023-03-31T20:57:06.491Z,-1.37
2023-03-31T20:59:37.007Z,-1.40
2023-03-31T21:02:07.469Z,-1.38
2023-03-31T21:04:39.541Z,-1.34
2023-03-31T21:07:18.203Z,-1.33
2023-03-31T21:09:48.817Z,-1.31
2023-03-31T21:12:20.328Z,-1.23
2023-03-31T21:14:50.893Z,-1.20
2023-03-31T21:17:21.355Z,-1.12
2023-03-31T21:19:53.627Z,-1.05
2023-03-31T21:22:24.192Z,-1.03
2023-03-31T21:24:56.086Z,-1.00
2023-03-31T21:27:26.615Z,-1.02
2023-03-31T21:29:57.089Z,-1.05
2023-03-31T21:32:30.640Z,-1.04
2023-03-31T21:35:02.725Z,-1.06
2023-03-31T21:37:39.284Z,-1.05
2023-03-31T21:40:11.119Z,-1.04
2023-03-31T21:42:42.058Z,-1.01
2023-03-31T21:45:13.538Z,-0.99
2023-03-31T21:47:45.369Z,-0.96
2023-03-31T21:50:21.405Z,-0.92
2023-03-31T21:52:53.939Z,-0.91
2023-03-31T21:55:24.632Z,-0.85
2023-03-31T21:57:56.227Z,-0.84
2023-03-31T22:00:27.174Z,-0.87
2023-03-31T22:05:35.940Z,-0.81
2023-03-31T22:08:07.074Z,-0.79
2023-03-31T22:10:37.912Z,-0.67
2023-03-31T22:13:08.418Z,-0.71
2023-03-31T22:15:38.989Z,-0.64
2023-03-31T22:18:09.585Z,-0.55
2023-03-31T22:20:41.750Z,-0.56
2023-03-31T22:23:12.350Z,-0.52
2023-03-31T22:25:42.850Z,-0.84
2023-03-31T22:28:13.475Z,-0.46
2023-03-31T22:30:44.858Z,-0.54
2023-03-31T22:33:15.469Z,-0.54
2023-03-31T22:35:47.670Z,-0.56
2023-03-31T22:38:18.197Z,-0.53
2023-03-31T22:40:48.880Z,-0.55
2023-03-31T22:43:19.649Z,-0.51
2023-03-31T22:45:50.222Z,-0.40
2023-03-31T22:48:23.895Z,-0.44
2023-03-31T22:50:56.126Z,-1.01
2023-03-31T22:53:26.678Z,-0.39
2023-03-31T22:55:58.829Z,-0.38
2023-03-31T22:58:29.275Z,-0.37
2023-03-31T23:01:00.625Z,-0.52
2023-03-31T23:03:31.430Z,-0.29
2023-03-31T23:06:07.578Z,-0.25
2023-03-31T23:08:38.939Z,-0.18
2023-03-31T23:11:12.758Z,-0.37
2023-03-31T23:13:57.700Z,-0.10
2023-03-31T23:16:29.026Z,0.05
2023-03-31T23:19:01.170Z,-0.02
2023-03-31T23:21:33.435Z,0.09
2023-03-31T23:24:05.292Z,0.10
2023-03-31T23:26:37.373Z,0.08
2023-03-31T23:29:08.505Z,0.11
2023-03-31T23:31:39.036Z,0.13
2023-03-31T23:34:13.702Z,0.10
2023-03-31T23:36:46.269Z,0.11
2023-03-31T23:39:17.022Z,0.08
2023-03-31T23:41:47.528Z,0.20
2023-03-31T23:44:17.971Z,0.27
2023-03-31T23:46:51.551Z,-0.24
2023-03-31T23:49:22.432Z,0.36
2023-03-31T23:51:54.745Z,0.49
2023-03-31T23:54:25.436Z,0.54
2023-03-31T23:56:56.055Z,0.54
2023-03-31T23:59:26.723Z,0.55
